sensor_id;sensor_type;location;lat;lon;timestamp;P1;durP1;ratioP1;P2;durP2;ratioP2
48665;SDS011;34452;50.796;4.994;2022-12-18T00:00:47;81.88;;;35.67;;
48665;SDS011;34452;50.796;4.994;2022-12-18T00:03:13;64.63;;;31.15;;
48665;SDS011;34452;50.796;4.994;2022-12-18T00:05:47;75.50;;;31.35;;
48665;SDS011;34452;50.796;4.994;2022-12-18T00:08:16;70.55;;;32.65;;
48665;SDS011;34452;50.796;4.994;2022-12-18T00:10:43;73.18;;;34.22;;
48665;SDS011;34452;50.796;4.994;2022-12-18T00:13:10;72.95;;;32.05;;
48665;SDS011;34452;50.796;4.994;2022-12-18T00:15:37;76.50;;;32.83;;
48665;SDS011;34452;50.796;4.994;2022-12-18T00:18:04;66.13;;;30.23;;
48665;SDS011;34452;50.796;4.994;2022-12-18T00:20:30;59.67;;;27.75;;
48665;SDS011;34452;50.796;4.994;2022-12-18T00:22:56;58.42;;;27.02;;
48665;SDS011;34452;50.796;4.994;2022-12-18T00:25:21;58.08;;;27.35;;
48665;SDS011;34452;50.796;4.994;2022-12-18T00:27:47;52.53;;;25.02;;
48665;SDS011;34452;50.796;4.994;2022-12-18T00:30:13;58.70;;;26.30;;
48665;SDS011;34452;50.796;4.994;2022-12-18T00:32:39;57.95;;;25.35;;
48665;SDS011;34452;50.796;4.994;2022-12-18T00:35:05;66.20;;;26.60;;
48665;SDS011;34452;50.796;4.994;2022-12-18T00:37:33;58.17;;;27.00;;
48665;SDS011;34452;50.796;4.994;2022-12-18T00:39:59;60.42;;;26.48;;
48665;SDS011;34452;50.796;4.994;2022-12-18T00:42:25;61.08;;;28.75;;
48665;SDS011;34452;50.796;4.994;2022-12-18T00:45:09;60.15;;;26.42;;
48665;SDS011;34452;50.796;4.994;2022-12-18T00:47:35;57.50;;;25.00;;
48665;SDS011;34452;50.796;4.994;2022-12-18T00:50:01;58.08;;;25.75;;
48665;SDS011;34452;50.796;4.994;2022-12-18T00:52:26;48.28;;;23.33;;
48665;SDS011;34452;50.796;4.994;2022-12-18T00:54:52;63.40;;;26.85;;
48665;SDS011;34452;50.796;4.994;2022-12-18T00:57:18;57.28;;;25.90;;
48665;SDS011;34452;50.796;4.994;2022-12-18T00:59:44;49.63;;;24.90;;
48665;SDS011;34452;50.796;4.994;2022-12-18T01:02:10;57.70;;;26.05;;
48665;SDS011;34452;50.796;4.994;2022-12-18T01:04:35;56.85;;;26.38;;
48665;SDS011;34452;50.796;4.994;2022-12-18T01:07:01;61.55;;;27.50;;
48665;SDS011;34452;50.796;4.994;2022-12-18T01:09:27;61.50;;;26.58;;
48665;SDS011;34452;50.796;4.994;2022-12-18T01:11:52;65.05;;;27.60;;
48665;SDS011;34452;50.796;4.994;2022-12-18T01:14:18;70.95;;;27.40;;
48665;SDS011;34452;50.796;4.994;2022-12-18T01:16:44;64.20;;;27.23;;
48665;SDS011;34452;50.796;4.994;2022-12-18T01:19:09;61.13;;;26.05;;
48665;SDS011;34452;50.796;4.994;2022-12-18T01:21:35;76.97;;;31.70;;
48665;SDS011;34452;50.796;4.994;2022-12-18T01:24:01;72.80;;;29.25;;
48665;SDS011;34452;50.796;4.994;2022-12-18T01:26:27;68.93;;;27.48;;
48665;SDS011;34452;50.796;4.994;2022-12-18T01:28:55;59.53;;;24.60;;
48665;SDS011;34452;50.796;4.994;2022-12-18T01:31:23;70.55;;;26.42;;
48665;SDS011;34452;50.796;4.994;2022-12-18T01:33:50;60.17;;;25.85;;
48665;SDS011;34452;50.796;4.994;2022-12-18T01:38:44;55.33;;;25.38;;
48665;SDS011;34452;50.796;4.994;2022-12-18T01:41:10;60.70;;;24.33;;
48665;SDS011;34452;50.796;4.994;2022-12-18T01:46:11;63.63;;;27.17;;
48665;SDS011;34452;50.796;4.994;2022-12-18T01:51:04;67.63;;;27.85;;
48665;SDS011;34452;50.796;4.994;2022-12-18T01:53:31;69.22;;;28.17;;
48665;SDS011;34452;50.796;4.994;2022-12-18T01:55:57;71.60;;;29.20;;
48665;SDS011;34452;50.796;4.994;2022-12-18T01:58:27;63.42;;;26.90;;
48665;SDS011;34452;50.796;4.994;2022-12-18T02:01:02;71.00;;;29.10;;
48665;SDS011;34452;50.796;4.994;2022-12-18T02:03:28;62.22;;;27.98;;
48665;SDS011;34452;50.796;4.994;2022-12-18T02:06:13;68.03;;;26.60;;
48665;SDS011;34452;50.796;4.994;2022-12-18T02:16:34;66.35;;;26.92;;
48665;SDS011;34452;50.796;4.994;2022-12-18T02:19:15;65.93;;;26.20;;
48665;SDS011;34452;50.796;4.994;2022-12-18T02:27:37;54.05;;;25.48;;
48665;SDS011;34452;50.796;4.994;2022-12-18T02:30:05;51.72;;;24.45;;
48665;SDS011;34452;50.796;4.994;2022-12-18T02:32:43;51.60;;;21.25;;
48665;SDS011;34452;50.796;4.994;2022-12-18T02:35:15;48.63;;;21.45;;
48665;SDS011;34452;50.796;4.994;2022-12-18T02:37:49;43.25;;;19.83;;
48665;SDS011;34452;50.796;4.994;2022-12-18T02:40:15;43.58;;;20.45;;
48665;SDS011;34452;50.796;4.994;2022-12-18T02:42:43;46.15;;;21.48;;
48665;SDS011;34452;50.796;4.994;2022-12-18T02:45:09;52.70;;;23.48;;
48665;SDS011;34452;50.796;4.994;2022-12-18T02:47:39;53.50;;;22.83;;
48665;SDS011;34452;50.796;4.994;2022-12-18T02:50:18;48.63;;;22.73;;
48665;SDS011;34452;50.796;4.994;2022-12-18T03:01:23;43.30;;;18.33;;
48665;SDS011;34452;50.796;4.994;2022-12-18T03:04:01;44.88;;;19.60;;
48665;SDS011;34452;50.796;4.994;2022-12-18T03:06:39;42.65;;;19.83;;
48665;SDS011;34452;50.796;4.994;2022-12-18T03:09:16;48.33;;;20.23;;
48665;SDS011;34452;50.796;4.994;2022-12-18T03:12:18;42.92;;;19.23;;
48665;SDS011;34452;50.796;4.994;2022-12-18T03:14:56;39.20;;;19.08;;
48665;SDS011;34452;50.796;4.994;2022-12-18T03:17:43;41.95;;;18.42;;
48665;SDS011;34452;50.796;4.994;2022-12-18T03:20:14;52.85;;;19.13;;
48665;SDS011;34452;50.796;4.994;2022-12-18T03:22:44;41.17;;;18.35;;
48665;SDS011;34452;50.796;4.994;2022-12-18T03:25:13;38.20;;;17.55;;
48665;SDS011;34452;50.796;4.994;2022-12-18T03:27:42;37.85;;;19.42;;
48665;SDS011;34452;50.796;4.994;2022-12-18T03:30:12;41.85;;;19.58;;
48665;SDS011;34452;50.796;4.994;2022-12-18T03:32:41;41.08;;;18.63;;
48665;SDS011;34452;50.796;4.994;2022-12-18T03:35:13;42.30;;;19.38;;
48665;SDS011;34452;50.796;4.994;2022-12-18T03:37:42;47.67;;;19.40;;
48665;SDS011;34452;50.796;4.994;2022-12-18T03:40:08;40.40;;;17.08;;
48665;SDS011;34452;50.796;4.994;2022-12-18T03:48:03;41.45;;;17.50;;
48665;SDS011;34452;50.796;4.994;2022-12-18T03:55:59;41.58;;;19.23;;
48665;SDS011;34452;50.796;4.994;2022-12-18T03:58:26;40.83;;;18.60;;
48665;SDS011;34452;50.796;4.994;2022-12-18T04:00:55;42.58;;;19.00;;
48665;SDS011;34452;50.796;4.994;2022-12-18T04:03:24;49.22;;;19.02;;
48665;SDS011;34452;50.796;4.994;2022-12-18T04:05:51;44.53;;;18.52;;
48665;SDS011;34452;50.796;4.994;2022-12-18T04:08:19;41.17;;;17.83;;
48665;SDS011;34452;50.796;4.994;2022-12-18T04:10:46;43.50;;;19.42;;
48665;SDS011;34452;50.796;4.994;2022-12-18T04:13:12;41.67;;;18.95;;
48665;SDS011;34452;50.796;4.994;2022-12-18T04:15:46;39.30;;;17.50;;
48665;SDS011;34452;50.796;4.994;2022-12-18T04:18:11;38.47;;;19.52;;
48665;SDS011;34452;50.796;4.994;2022-12-18T04:20:37;45.75;;;19.83;;
48665;SDS011;34452;50.796;4.994;2022-12-18T04:23:03;40.10;;;19.50;;
48665;SDS011;34452;50.796;4.994;2022-12-18T04:25:28;42.25;;;18.10;;
48665;SDS011;34452;50.796;4.994;2022-12-18T04:27:54;43.42;;;18.92;;
48665;SDS011;34452;50.796;4.994;2022-12-18T04:30:20;48.85;;;21.13;;
48665;SDS011;34452;50.796;4.994;2022-12-18T04:32:45;51.42;;;21.90;;
48665;SDS011;34452;50.796;4.994;2022-12-18T04:35:11;39.53;;;18.30;;
48665;SDS011;34452;50.796;4.994;2022-12-18T04:37:37;48.58;;;21.02;;
48665;SDS011;34452;50.796;4.994;2022-12-18T04:40:03;45.13;;;20.02;;
48665;SDS011;34452;50.796;4.994;2022-12-18T04:42:29;48.10;;;20.65;;
48665;SDS011;34452;50.796;4.994;2022-12-18T04:44:54;42.53;;;19.83;;
48665;SDS011;34452;50.796;4.994;2022-12-18T04:47:20;54.38;;;20.80;;
48665;SDS011;34452;50.796;4.994;2022-12-18T04:49:46;44.60;;;21.17;;
48665;SDS011;34452;50.796;4.994;2022-12-18T04:52:11;47.78;;;21.33;;
48665;SDS011;34452;50.796;4.994;2022-12-18T04:54:37;45.35;;;20.25;;
48665;SDS011;34452;50.796;4.994;2022-12-18T04:57:03;48.17;;;21.42;;
48665;SDS011;34452;50.796;4.994;2022-12-18T04:59:28;59.08;;;21.75;;
48665;SDS011;34452;50.796;4.994;2022-12-18T05:01:54;52.42;;;22.55;;
48665;SDS011;34452;50.796;4.994;2022-12-18T05:04:20;43.20;;;20.92;;
48665;SDS011;34452;50.796;4.994;2022-12-18T05:06:45;46.92;;;19.90;;
48665;SDS011;34452;50.796;4.994;2022-12-18T05:09:11;41.85;;;20.38;;
48665;SDS011;34452;50.796;4.994;2022-12-18T05:11:37;44.83;;;20.60;;
48665;SDS011;34452;50.796;4.994;2022-12-18T05:14:03;46.22;;;20.23;;
48665;SDS011;34452;50.796;4.994;2022-12-18T05:16:28;46.60;;;19.27;;
48665;SDS011;34452;50.796;4.994;2022-12-18T05:18:54;45.42;;;20.42;;
48665;SDS011;34452;50.796;4.994;2022-12-18T05:21:20;44.38;;;19.45;;
48665;SDS011;34452;50.796;4.994;2022-12-18T05:23:45;46.55;;;20.27;;
48665;SDS011;34452;50.796;4.994;2022-12-18T05:26:14;55.10;;;19.95;;
48665;SDS011;34452;50.796;4.994;2022-12-18T05:28:42;40.20;;;18.40;;
48665;SDS011;34452;50.796;4.994;2022-12-18T05:31:07;46.08;;;20.05;;
48665;SDS011;34452;50.796;4.994;2022-12-18T05:33:34;46.08;;;20.27;;
48665;SDS011;34452;50.796;4.994;2022-12-18T05:36:01;42.90;;;18.77;;
48665;SDS011;34452;50.796;4.994;2022-12-18T05:38:27;45.17;;;19.25;;
48665;SDS011;34452;50.796;4.994;2022-12-18T05:40:54;48.10;;;18.42;;
48665;SDS011;34452;50.796;4.994;2022-12-18T05:43:21;39.70;;;18.50;;
48665;SDS011;34452;50.796;4.994;2022-12-18T05:45:48;44.78;;;18.27;;
48665;SDS011;34452;50.796;4.994;2022-12-18T05:50:40;33.47;;;15.77;;
48665;SDS011;34452;50.796;4.994;2022-12-18T05:53:10;44.45;;;15.57;;
48665;SDS011;34452;50.796;4.994;2022-12-18T05:55:38;39.65;;;16.63;;
48665;SDS011;34452;50.796;4.994;2022-12-18T05:58:06;47.67;;;18.48;;
48665;SDS011;34452;50.796;4.994;2022-12-18T06:00:33;40.13;;;17.15;;
48665;SDS011;34452;50.796;4.994;2022-12-18T06:03:01;41.92;;;18.58;;
48665;SDS011;34452;50.796;4.994;2022-12-18T06:07:53;36.17;;;16.35;;
48665;SDS011;34452;50.796;4.994;2022-12-18T06:10:19;35.20;;;15.93;;
48665;SDS011;34452;50.796;4.994;2022-12-18T06:12:44;46.53;;;18.20;;
48665;SDS011;34452;50.796;4.994;2022-12-18T06:15:10;40.72;;;18.17;;
48665;SDS011;34452;50.796;4.994;2022-12-18T06:17:36;41.67;;;18.42;;
48665;SDS011;34452;50.796;4.994;2022-12-18T06:20:02;43.92;;;17.50;;
48665;SDS011;34452;50.796;4.994;2022-12-18T06:22:30;43.92;;;17.25;;
48665;SDS011;34452;50.796;4.994;2022-12-18T06:24:57;33.45;;;16.13;;
48665;SDS011;34452;50.796;4.994;2022-12-18T06:27:22;41.25;;;18.13;;
48665;SDS011;34452;50.796;4.994;2022-12-18T06:29:48;37.95;;;17.42;;
48665;SDS011;34452;50.796;4.994;2022-12-18T06:32:14;39.25;;;17.83;;
48665;SDS011;34452;50.796;4.994;2022-12-18T06:34:39;49.25;;;19.20;;
48665;SDS011;34452;50.796;4.994;2022-12-18T06:37:05;40.03;;;17.48;;
48665;SDS011;34452;50.796;4.994;2022-12-18T06:39:31;41.95;;;18.55;;
48665;SDS011;34452;50.796;4.994;2022-12-18T06:41:57;39.58;;;17.58;;
48665;SDS011;34452;50.796;4.994;2022-12-18T06:44:22;39.85;;;17.70;;
48665;SDS011;34452;50.796;4.994;2022-12-18T06:46:48;34.80;;;16.20;;
48665;SDS011;34452;50.796;4.994;2022-12-18T06:49:14;45.20;;;17.67;;
48665;SDS011;34452;50.796;4.994;2022-12-18T06:51:41;35.20;;;16.27;;
48665;SDS011;34452;50.796;4.994;2022-12-18T06:56:32;41.17;;;16.63;;
48665;SDS011;34452;50.796;4.994;2022-12-18T06:58:58;43.72;;;18.90;;
48665;SDS011;34452;50.796;4.994;2022-12-18T07:01:24;46.20;;;18.02;;
48665;SDS011;34452;50.796;4.994;2022-12-18T07:03:53;40.42;;;18.73;;
48665;SDS011;34452;50.796;4.994;2022-12-18T07:06:21;52.60;;;21.60;;
48665;SDS011;34452;50.796;4.994;2022-12-18T07:08:48;38.60;;;18.77;;
48665;SDS011;34452;50.796;4.994;2022-12-18T07:11:16;49.53;;;21.77;;
48665;SDS011;34452;50.796;4.994;2022-12-18T07:13:43;45.05;;;20.35;;
48665;SDS011;34452;50.796;4.994;2022-12-18T07:18:38;44.65;;;19.27;;
48665;SDS011;34452;50.796;4.994;2022-12-18T07:21:08;46.90;;;18.98;;
48665;SDS011;34452;50.796;4.994;2022-12-18T07:23:39;43.95;;;18.13;;
48665;SDS011;34452;50.796;4.994;2022-12-18T07:26:10;46.63;;;17.60;;
48665;SDS011;34452;50.796;4.994;2022-12-18T07:28:37;42.25;;;18.42;;
48665;SDS011;34452;50.796;4.994;2022-12-18T07:31:05;43.50;;;18.75;;
48665;SDS011;34452;50.796;4.994;2022-12-18T07:33:35;44.05;;;18.65;;
48665;SDS011;34452;50.796;4.994;2022-12-18T07:36:01;42.58;;;18.50;;
48665;SDS011;34452;50.796;4.994;2022-12-18T07:38:29;45.80;;;17.77;;
48665;SDS011;34452;50.796;4.994;2022-12-18T07:41:01;42.80;;;18.25;;
48665;SDS011;34452;50.796;4.994;2022-12-18T07:43:34;39.60;;;16.92;;
48665;SDS011;34452;50.796;4.994;2022-12-18T07:46:00;37.83;;;17.60;;
48665;SDS011;34452;50.796;4.994;2022-12-18T07:48:26;38.75;;;17.27;;
48665;SDS011;34452;50.796;4.994;2022-12-18T07:50:52;40.45;;;17.98;;
48665;SDS011;34452;50.796;4.994;2022-12-18T07:53:18;40.70;;;18.15;;
48665;SDS011;34452;50.796;4.994;2022-12-18T07:55:44;43.40;;;17.42;;
48665;SDS011;34452;50.796;4.994;2022-12-18T07:58:09;36.17;;;16.33;;
48665;SDS011;34452;50.796;4.994;2022-12-18T08:00:36;35.88;;;16.80;;
48665;SDS011;34452;50.796;4.994;2022-12-18T08:03:02;34.10;;;15.90;;
48665;SDS011;34452;50.796;4.994;2022-12-18T08:05:27;35.92;;;15.77;;
48665;SDS011;34452;50.796;4.994;2022-12-18T08:07:53;42.25;;;17.67;;
48665;SDS011;34452;50.796;4.994;2022-12-18T08:12:45;40.58;;;15.90;;
48665;SDS011;34452;50.796;4.994;2022-12-18T08:15:15;38.38;;;16.33;;
48665;SDS011;34452;50.796;4.994;2022-12-18T08:17:40;39.58;;;16.90;;
48665;SDS011;34452;50.796;4.994;2022-12-18T08:20:06;32.83;;;15.90;;
48665;SDS011;34452;50.796;4.994;2022-12-18T08:22:33;41.22;;;17.73;;
48665;SDS011;34452;50.796;4.994;2022-12-18T08:25:03;39.42;;;17.42;;
48665;SDS011;34452;50.796;4.994;2022-12-18T08:27:29;48.13;;;18.90;;
48665;SDS011;34452;50.796;4.994;2022-12-18T08:29:55;48.58;;;19.33;;
48665;SDS011;34452;50.796;4.994;2022-12-18T08:32:21;49.08;;;18.75;;
48665;SDS011;34452;50.796;4.994;2022-12-18T08:34:47;45.70;;;19.80;;
48665;SDS011;34452;50.796;4.994;2022-12-18T08:37:13;39.15;;;16.80;;
48665;SDS011;34452;50.796;4.994;2022-12-18T08:39:38;44.78;;;18.40;;
48665;SDS011;34452;50.796;4.994;2022-12-18T08:42:04;42.95;;;18.90;;
48665;SDS011;34452;50.796;4.994;2022-12-18T08:44:53;35.13;;;15.90;;
48665;SDS011;34452;50.796;4.994;2022-12-18T08:47:19;31.65;;;15.85;;
48665;SDS011;34452;50.796;4.994;2022-12-18T08:49:44;34.22;;;14.55;;
48665;SDS011;34452;50.796;4.994;2022-12-18T08:52:10;33.17;;;15.05;;
48665;SDS011;34452;50.796;4.994;2022-12-18T08:54:36;28.42;;;14.25;;
48665;SDS011;34452;50.796;4.994;2022-12-18T08:57:01;27.95;;;12.63;;
48665;SDS011;34452;50.796;4.994;2022-12-18T08:59:27;34.10;;;13.60;;
48665;SDS011;34452;50.796;4.994;2022-12-18T09:01:53;33.10;;;14.07;;
48665;SDS011;34452;50.796;4.994;2022-12-18T09:04:19;34.90;;;13.82;;
48665;SDS011;34452;50.796;4.994;2022-12-18T09:06:44;39.45;;;15.98;;
48665;SDS011;34452;50.796;4.994;2022-12-18T09:09:11;31.42;;;15.10;;
48665;SDS011;34452;50.796;4.994;2022-12-18T09:11:37;39.75;;;16.45;;
48665;SDS011;34452;50.796;4.994;2022-12-18T09:14:02;30.75;;;14.98;;
48665;SDS011;34452;50.796;4.994;2022-12-18T09:16:28;41.53;;;16.52;;
48665;SDS011;34452;50.796;4.994;2022-12-18T09:18:55;39.88;;;14.90;;
48665;SDS011;34452;50.796;4.994;2022-12-18T09:21:24;43.17;;;16.77;;
48665;SDS011;34452;50.796;4.994;2022-12-18T09:23:53;33.15;;;15.90;;
48665;SDS011;34452;50.796;4.994;2022-12-18T09:26:23;31.95;;;14.80;;
48665;SDS011;34452;50.796;4.994;2022-12-18T09:28:50;37.67;;;16.45;;
48665;SDS011;34452;50.796;4.994;2022-12-18T09:31:16;35.20;;;16.38;;
48665;SDS011;34452;50.796;4.994;2022-12-18T09:33:43;30.27;;;15.02;;
48665;SDS011;34452;50.796;4.994;2022-12-18T09:36:10;30.27;;;15.48;;
48665;SDS011;34452;50.796;4.994;2022-12-18T09:38:38;31.88;;;14.55;;
48665;SDS011;34452;50.796;4.994;2022-12-18T09:43:59;29.75;;;14.27;;
48665;SDS011;34452;50.796;4.994;2022-12-18T09:46:33;28.98;;;13.90;;
48665;SDS011;34452;50.796;4.994;2022-12-18T09:49:03;25.75;;;12.73;;
48665;SDS011;34452;50.796;4.994;2022-12-18T09:54:53;31.02;;;11.85;;
48665;SDS011;34452;50.796;4.994;2022-12-18T09:57:01;42.13;;;14.63;;
48665;SDS011;34452;50.796;4.994;2022-12-18T09:59:31;25.70;;;13.48;;
48665;SDS011;34452;50.796;4.994;2022-12-18T10:02:15;25.98;;;13.57;;
48665;SDS011;34452;50.796;4.994;2022-12-18T10:04:55;28.02;;;13.88;;
48665;SDS011;34452;50.796;4.994;2022-12-18T10:21:44;22.40;;;11.50;;
48665;SDS011;34452;50.796;4.994;2022-12-18T10:26:47;20.10;;;10.27;;
48665;SDS011;34452;50.796;4.994;2022-12-18T10:29:13;27.92;;;11.38;;
48665;SDS011;34452;50.796;4.994;2022-12-18T10:31:41;27.02;;;11.10;;
48665;SDS011;34452;50.796;4.994;2022-12-18T10:34:12;26.75;;;12.35;;
48665;SDS011;34452;50.796;4.994;2022-12-18T10:36:38;32.63;;;14.20;;
48665;SDS011;34452;50.796;4.994;2022-12-18T10:42:14;24.40;;;12.80;;
48665;SDS011;34452;50.796;4.994;2022-12-18T10:44:43;23.58;;;13.15;;
48665;SDS011;34452;50.796;4.994;2022-12-18T10:47:11;33.13;;;15.18;;
48665;SDS011;34452;50.796;4.994;2022-12-18T10:49:42;23.58;;;12.88;;
48665;SDS011;34452;50.796;4.994;2022-12-18T10:52:21;24.25;;;13.35;;
48665;SDS011;34452;50.796;4.994;2022-12-18T10:54:59;25.73;;;14.27;;
48665;SDS011;34452;50.796;4.994;2022-12-18T10:57:37;29.85;;;14.35;;
48665;SDS011;34452;50.796;4.994;2022-12-18T11:00:22;27.92;;;14.00;;
48665;SDS011;34452;50.796;4.994;2022-12-18T11:02:53;25.65;;;13.57;;
48665;SDS011;34452;50.796;4.994;2022-12-18T11:05:25;24.80;;;13.40;;
48665;SDS011;34452;50.796;4.994;2022-12-18T11:07:59;30.77;;;15.45;;
48665;SDS011;34452;50.796;4.994;2022-12-18T11:10:28;26.58;;;14.77;;
48665;SDS011;34452;50.796;4.994;2022-12-18T11:13:20;27.27;;;13.88;;
48665;SDS011;34452;50.796;4.994;2022-12-18T11:15:49;23.20;;;11.52;;
48665;SDS011;34452;50.796;4.994;2022-12-18T11:18:36;27.52;;;13.13;;
48665;SDS011;34452;50.796;4.994;2022-12-18T11:21:05;24.98;;;12.20;;
48665;SDS011;34452;50.796;4.994;2022-12-18T11:23:34;23.75;;;12.15;;
48665;SDS011;34452;50.796;4.994;2022-12-18T11:26:01;20.70;;;11.93;;
48665;SDS011;34452;50.796;4.994;2022-12-18T11:31:25;21.85;;;11.70;;
48665;SDS011;34452;50.796;4.994;2022-12-18T11:36:28;22.33;;;12.85;;
48665;SDS011;34452;50.796;4.994;2022-12-18T11:41:56;29.70;;;14.13;;
48665;SDS011;34452;50.796;4.994;2022-12-18T11:44:38;24.45;;;12.57;;
48665;SDS011;34452;50.796;4.994;2022-12-18T11:49:51;25.05;;;13.10;;
48665;SDS011;34452;50.796;4.994;2022-12-18T11:54:51;20.85;;;12.75;;
48665;SDS011;34452;50.796;4.994;2022-12-18T12:05:49;22.98;;;13.50;;
48665;SDS011;34452;50.796;4.994;2022-12-18T12:11:28;26.30;;;13.60;;
48665;SDS011;34452;50.796;4.994;2022-12-18T12:17:20;24.75;;;13.10;;
48665;SDS011;34452;50.796;4.994;2022-12-18T12:20:09;25.27;;;13.35;;
48665;SDS011;34452;50.796;4.994;2022-12-18T12:22:54;19.85;;;12.32;;
48665;SDS011;34452;50.796;4.994;2022-12-18T12:33:13;22.48;;;12.30;;
48665;SDS011;34452;50.796;4.994;2022-12-18T12:35:49;20.33;;;12.05;;
48665;SDS011;34452;50.796;4.994;2022-12-18T12:38:36;27.52;;;13.50;;
48665;SDS011;34452;50.796;4.994;2022-12-18T12:41:12;24.02;;;14.05;;
48665;SDS011;34452;50.796;4.994;2022-12-18T12:43:58;23.27;;;12.38;;
48665;SDS011;34452;50.796;4.994;2022-12-18T12:46:29;24.45;;;13.57;;
48665;SDS011;34452;50.796;4.994;2022-12-18T12:49:00;25.20;;;12.73;;
48665;SDS011;34452;50.796;4.994;2022-12-18T12:51:33;26.15;;;12.90;;
48665;SDS011;34452;50.796;4.994;2022-12-18T12:54:01;26.60;;;13.00;;
48665;SDS011;34452;50.796;4.994;2022-12-18T12:59:25;23.13;;;11.75;;
48665;SDS011;34452;50.796;4.994;2022-12-18T13:02:14;19.08;;;10.57;;
48665;SDS011;34452;50.796;4.994;2022-12-18T13:04:54;21.25;;;10.45;;
48665;SDS011;34452;50.796;4.994;2022-12-18T13:07:26;19.05;;;11.40;;
48665;SDS011;34452;50.796;4.994;2022-12-18T13:12:54;18.27;;;10.07;;
48665;SDS011;34452;50.796;4.994;2022-12-18T13:15:28;18.80;;;11.05;;
48665;SDS011;34452;50.796;4.994;2022-12-18T13:20:49;25.92;;;11.73;;
48665;SDS011;34452;50.796;4.994;2022-12-18T13:28:18;19.65;;;10.52;;
48665;SDS011;34452;50.796;4.994;2022-12-18T13:31:08;23.83;;;12.27;;
48665;SDS011;34452;50.796;4.994;2022-12-18T13:38:39;18.42;;;10.90;;
48665;SDS011;34452;50.796;4.994;2022-12-18T13:43:44;20.20;;;10.02;;
48665;SDS011;34452;50.796;4.994;2022-12-18T13:51:49;21.50;;;10.23;;
48665;SDS011;34452;50.796;4.994;2022-12-18T13:56:49;18.92;;;10.57;;
48665;SDS011;34452;50.796;4.994;2022-12-18T14:01:47;21.58;;;11.75;;
48665;SDS011;34452;50.796;4.994;2022-12-18T14:06:48;22.48;;;12.07;;
48665;SDS011;34452;50.796;4.994;2022-12-18T14:09:25;25.70;;;12.38;;
48665;SDS011;34452;50.796;4.994;2022-12-18T14:11:55;24.20;;;12.60;;
48665;SDS011;34452;50.796;4.994;2022-12-18T14:14:46;21.63;;;11.77;;
48665;SDS011;34452;50.796;4.994;2022-12-18T14:17:14;20.55;;;10.38;;
48665;SDS011;34452;50.796;4.994;2022-12-18T14:22:21;22.88;;;12.48;;
48665;SDS011;34452;50.796;4.994;2022-12-18T14:25:05;24.33;;;12.85;;
48665;SDS011;34452;50.796;4.994;2022-12-18T14:27:50;25.27;;;13.00;;
48665;SDS011;34452;50.796;4.994;2022-12-18T14:30:32;24.73;;;12.68;;
48665;SDS011;34452;50.796;4.994;2022-12-18T14:33:05;24.15;;;13.20;;
48665;SDS011;34452;50.796;4.994;2022-12-18T14:35:37;22.95;;;12.32;;
48665;SDS011;34452;50.796;4.994;2022-12-18T14:40:59;29.92;;;14.10;;
48665;SDS011;34452;50.796;4.994;2022-12-18T14:43:26;24.90;;;12.48;;
48665;SDS011;34452;50.796;4.994;2022-12-18T14:45:53;24.48;;;12.82;;
48665;SDS011;34452;50.796;4.994;2022-12-18T14:48:40;25.55;;;12.60;;
48665;SDS011;34452;50.796;4.994;2022-12-18T14:53:43;25.58;;;13.57;;
48665;SDS011;34452;50.796;4.994;2022-12-18T14:56:18;28.48;;;12.55;;
48665;SDS011;34452;50.796;4.994;2022-12-18T14:58:57;25.90;;;13.60;;
48665;SDS011;34452;50.796;4.994;2022-12-18T15:01:29;25.73;;;14.25;;
48665;SDS011;34452;50.796;4.994;2022-12-18T15:04:01;26.90;;;13.98;;
48665;SDS011;34452;50.796;4.994;2022-12-18T15:06:32;24.65;;;13.10;;
48665;SDS011;34452;50.796;4.994;2022-12-18T15:09:24;24.67;;;12.60;;
48665;SDS011;34452;50.796;4.994;2022-12-18T15:12:00;23.13;;;13.10;;
48665;SDS011;34452;50.796;4.994;2022-12-18T15:16:55;25.58;;;13.70;;
48665;SDS011;34452;50.796;4.994;2022-12-18T15:19:22;29.70;;;14.48;;
48665;SDS011;34452;50.796;4.994;2022-12-18T15:24:50;25.52;;;13.40;;
48665;SDS011;34452;50.796;4.994;2022-12-18T15:29:59;31.08;;;14.25;;
48665;SDS011;34452;50.796;4.994;2022-12-18T15:32:34;26.20;;;13.93;;
48665;SDS011;34452;50.796;4.994;2022-12-18T15:35:02;28.52;;;14.52;;
48665;SDS011;34452;50.796;4.994;2022-12-18T15:37:28;28.48;;;14.52;;
48665;SDS011;34452;50.796;4.994;2022-12-18T15:39:54;30.05;;;14.27;;
48665;SDS011;34452;50.796;4.994;2022-12-18T15:42:19;26.42;;;13.98;;
48665;SDS011;34452;50.796;4.994;2022-12-18T15:45:03;26.08;;;13.23;;
48665;SDS011;34452;50.796;4.994;2022-12-18T15:47:30;28.55;;;14.75;;
48665;SDS011;34452;50.796;4.994;2022-12-18T15:49:55;27.58;;;14.27;;
48665;SDS011;34452;50.796;4.994;2022-12-18T15:52:21;32.25;;;14.15;;
48665;SDS011;34452;50.796;4.994;2022-12-18T15:54:51;27.92;;;14.85;;
48665;SDS011;34452;50.796;4.994;2022-12-18T15:57:35;30.02;;;15.52;;
48665;SDS011;34452;50.796;4.994;2022-12-18T16:00:01;26.60;;;13.63;;
48665;SDS011;34452;50.796;4.994;2022-12-18T16:02:27;28.27;;;14.50;;
48665;SDS011;34452;50.796;4.994;2022-12-18T16:04:53;27.42;;;13.95;;
48665;SDS011;34452;50.796;4.994;2022-12-18T16:07:19;28.63;;;14.75;;
48665;SDS011;34452;50.796;4.994;2022-12-18T16:09:45;28.45;;;14.90;;
48665;SDS011;34452;50.796;4.994;2022-12-18T16:12:15;26.25;;;13.98;;
48665;SDS011;34452;50.796;4.994;2022-12-18T16:14:50;29.50;;;14.98;;
48665;SDS011;34452;50.796;4.994;2022-12-18T16:17:16;27.23;;;13.95;;
48665;SDS011;34452;50.796;4.994;2022-12-18T16:19:42;30.45;;;14.57;;
48665;SDS011;34452;50.796;4.994;2022-12-18T16:22:21;28.13;;;15.00;;
48665;SDS011;34452;50.796;4.994;2022-12-18T16:24:50;25.65;;;13.55;;
48665;SDS011;34452;50.796;4.994;2022-12-18T16:27:17;27.05;;;14.45;;
48665;SDS011;34452;50.796;4.994;2022-12-18T16:32:11;26.17;;;13.50;;
48665;SDS011;34452;50.796;4.994;2022-12-18T16:34:39;27.42;;;14.35;;
48665;SDS011;34452;50.796;4.994;2022-12-18T16:37:05;26.83;;;14.68;;
48665;SDS011;34452;50.796;4.994;2022-12-18T16:39:33;29.27;;;14.15;;
48665;SDS011;34452;50.796;4.994;2022-12-18T16:41:59;27.73;;;13.55;;
48665;SDS011;34452;50.796;4.994;2022-12-18T16:44:26;28.33;;;14.43;;
48665;SDS011;34452;50.796;4.994;2022-12-18T16:46:52;27.90;;;14.00;;
48665;SDS011;34452;50.796;4.994;2022-12-18T16:49:18;33.83;;;14.43;;
48665;SDS011;34452;50.796;4.994;2022-12-18T16:51:47;29.48;;;13.98;;
48665;SDS011;34452;50.796;4.994;2022-12-18T16:54:12;25.98;;;14.13;;
48665;SDS011;34452;50.796;4.994;2022-12-18T16:56:38;28.83;;;14.32;;
48665;SDS011;34452;50.796;4.994;2022-12-18T16:59:04;26.23;;;14.63;;
48665;SDS011;34452;50.796;4.994;2022-12-18T17:01:31;26.88;;;14.00;;
48665;SDS011;34452;50.796;4.994;2022-12-18T17:03:58;27.38;;;14.32;;
48665;SDS011;34452;50.796;4.994;2022-12-18T17:06:26;27.33;;;14.35;;
48665;SDS011;34452;50.796;4.994;2022-12-18T17:08:57;29.08;;;14.93;;
48665;SDS011;34452;50.796;4.994;2022-12-18T17:11:24;27.27;;;14.50;;
48665;SDS011;34452;50.796;4.994;2022-12-18T17:13:50;28.38;;;13.90;;
48665;SDS011;34452;50.796;4.994;2022-12-18T17:16:16;28.02;;;14.25;;
48665;SDS011;34452;50.796;4.994;2022-12-18T17:18:43;26.80;;;14.05;;
48665;SDS011;34452;50.796;4.994;2022-12-18T17:21:10;27.10;;;13.75;;